KOWD/OWD METAR and TAF weather

Enter ICAO airport designator
Station Type Date Time Source
KOWD METAR 2019/06/26 05:53 UTC NOAA

KOWD 260553Z AUTO 00000KT 10SM SCT006 OVC017 21/19 A2992 RMK AO2 SLP133 60010 T02110189 10217 20211 51002


Station Type Date Time Source
KOWD Decoded METAR 2019/06/26 05:53 UTC NOAA

NORWOOD MEMORIAL AIRPORT, MA, United States (KOWD) 42-11N 71-10W 19M
Jun 26, 2019 - 01:53 AM EDT / 2019.06.26 0553 UTC
Wind: Calm:0
Visibility: 10 mile(s):0
Sky conditions: overcast
Temperature: 70.0 F (21.1 C)
Dew Point: 66.0 F (18.9 C)
Relative Humidity: 87%
Pressure (altimeter): 29.92 in. Hg (1013 hPa)
Pressure tendency: 0.01 inches (0.2 hPa) higher than three hours ago
ob: KOWD 260553Z AUTO 00000KT 10SM SCT006 OVC017 21/19 A2992 RMK AO2 SLP133 60010 T02110189 10217 20211 51002
cycle: 6

Station Type Date Time Source
KOWD TAF UTC NOAA

Error!

Example: see airport list